createdAt,value
2022-11-05T00:01:30.259Z,34.50
2022-11-05T00:04:17.145Z,32.40
2022-11-05T00:07:04.769Z,33.30
2022-11-05T00:09:34.793Z,34.30
2022-11-05T00:12:25.203Z,33.70
2022-11-05T00:15:12.322Z,30.50
2022-11-05T00:17:41.425Z,28.50
2022-11-05T00:20:13.198Z,26.90
2022-11-05T00:22:59.894Z,25.00
2022-11-05T00:25:29.993Z,25.30
2022-11-05T00:28:02.337Z,25.00
2022-11-05T00:30:31.864Z,23.80
2022-11-05T00:33:02.885Z,24.30
2022-11-05T00:35:31.486Z,23.80
2022-11-05T00:38:00.244Z,23.10
2022-11-05T00:40:29.347Z,24.30
2022-11-05T00:43:16.055Z,24.80
2022-11-05T00:45:44.686Z,25.50
2022-11-05T00:48:31.765Z,24.00
2022-11-05T00:51:00.588Z,24.10
2022-11-05T00:53:29.356Z,23.60
2022-11-05T00:55:58.240Z,22.90
2022-11-05T00:58:28.906Z,23.70
2022-11-05T01:00:59.681Z,23.60
2022-11-05T01:03:30.654Z,23.20
2022-11-05T01:06:06.374Z,24.40
2022-11-05T01:08:35.117Z,22.50
2022-11-05T01:11:10.489Z,23.50
2022-11-05T01:13:40.193Z,23.00
2022-11-05T01:16:10.410Z,23.10
2022-11-05T01:18:39.509Z,22.90
2022-11-05T01:21:15.391Z,23.40
2022-11-05T01:23:44.092Z,22.90
2022-11-05T01:26:12.677Z,23.40
2022-11-05T01:28:41.388Z,22.80
2022-11-05T01:31:10.469Z,22.40
2022-11-05T01:33:39.255Z,23.80
2022-11-05T01:36:09.108Z,22.20
2022-11-05T01:38:37.998Z,22.00
2022-11-05T01:41:09.864Z,22.20
2022-11-05T01:43:49.501Z,22.90
2022-11-05T01:46:20.021Z,23.30
2022-11-05T01:48:52.253Z,22.50
2022-11-05T01:51:25.366Z,22.60
2022-11-05T01:53:59.490Z,23.30
2022-11-05T01:56:33.856Z,22.60
2022-11-05T01:59:07.013Z,21.30
2022-11-05T02:01:35.907Z,23.00
2022-11-05T02:04:08.863Z,23.10
2022-11-05T02:06:45.608Z,22.80
2022-11-05T02:09:18.994Z,21.90
2022-11-05T02:11:48.617Z,22.60
2022-11-05T02:14:17.939Z,22.80
2022-11-05T02:16:54.087Z,23.40
2022-11-05T02:19:48.885Z,23.00
2022-11-05T02:22:40.650Z,23.00
2022-11-05T02:25:33.520Z,23.00
2022-11-05T02:28:26.886Z,22.20
2022-11-05T02:31:03.717Z,22.70
2022-11-05T02:33:39.900Z,23.60
2022-11-05T02:36:22.270Z,22.10
2022-11-05T02:39:03.689Z,22.70
2022-11-05T02:41:40.469Z,22.00
2022-11-05T02:44:21.015Z,21.50
2022-11-05T02:46:57.836Z,21.50
2022-11-05T02:49:38.354Z,23.60
2022-11-05T02:52:14.174Z,22.30
2022-11-05T02:54:48.642Z,21.40
2022-11-05T02:57:21.234Z,22.30
2022-11-05T02:59:49.864Z,21.50
2022-11-05T03:02:18.848Z,21.80
2022-11-05T03:04:47.696Z,22.20
2022-11-05T03:07:32.735Z,22.90
2022-11-05T03:10:38.282Z,22.60
2022-11-05T03:13:17.161Z,21.80
2022-11-05T03:15:57.711Z,22.50
2022-11-05T03:18:34.522Z,21.40
2022-11-05T03:21:07.189Z,21.80
2022-11-05T03:23:46.164Z,21.70
2022-11-05T03:26:19.182Z,21.80
2022-11-05T03:28:52.162Z,22.00
2022-11-05T03:31:23.315Z,21.60
2022-11-05T03:33:55.092Z,22.50
2022-11-05T03:36:27.407Z,21.60
2022-11-05T03:39:01.045Z,23.30
2022-11-05T03:41:33.132Z,22.20
2022-11-05T03:44:06.224Z,22.20
2022-11-05T03:46:42.431Z,22.90
2022-11-05T03:49:17.892Z,22.50
2022-11-05T03:51:52.444Z,22.80
2022-11-05T03:54:21.569Z,22.00
2022-11-05T03:57:01.061Z,22.60
2022-11-05T03:59:31.268Z,22.30
2022-11-05T04:02:00.181Z,21.60
2022-11-05T04:04:28.949Z,23.00
2022-11-05T04:07:15.707Z,21.90
2022-11-05T04:10:02.421Z,22.90
2022-11-05T04:12:49.288Z,22.50
2022-11-05T04:15:18.142Z,22.90
2022-11-05T04:17:47.037Z,23.50
2022-11-05T04:20:34.351Z,22.60
2022-11-05T04:23:23.310Z,22.80
2022-11-05T04:25:52.102Z,21.80
2022-11-05T04:28:40.962Z,23.30
2022-11-05T04:31:18.912Z,22.60
2022-11-05T04:33:57.343Z,23.80
2022-11-05T04:36:35.429Z,23.80
2022-11-05T04:39:12.998Z,23.30
2022-11-05T04:41:51.654Z,22.80
2022-11-05T04:44:29.795Z,23.00
2022-11-05T04:46:58.582Z,23.30
2022-11-05T04:49:27.360Z,22.50
2022-11-05T04:51:56.728Z,24.00
2022-11-05T04:54:25.813Z,22.30
2022-11-05T04:56:54.789Z,23.90
2022-11-05T04:59:23.570Z,24.90
2022-11-05T05:01:53.620Z,23.70
2022-11-05T05:04:22.354Z,23.60
2022-11-05T05:06:51.334Z,23.00
2022-11-05T05:09:20.305Z,23.40
2022-11-05T05:11:49.143Z,23.10
2022-11-05T05:14:18.054Z,22.90
2022-11-05T05:16:46.715Z,23.90
2022-11-05T05:19:15.555Z,23.00
2022-11-05T05:21:44.373Z,22.50
2022-11-05T05:24:15.223Z,23.90
2022-11-05T05:26:45.835Z,22.20
2022-11-05T05:29:15.094Z,22.60
2022-11-05T05:31:44.746Z,22.90
2022-11-05T05:34:15.013Z,22.30
2022-11-05T05:36:43.831Z,23.50
2022-11-05T05:39:13.138Z,22.30
2022-11-05T05:41:41.993Z,23.90
2022-11-05T05:44:10.809Z,22.70
2022-11-05T05:46:39.613Z,24.60
2022-11-05T05:49:12.505Z,24.40
2022-11-05T05:51:41.519Z,23.40
2022-11-05T05:54:12.382Z,22.70
2022-11-05T05:56:42.693Z,25.50
2022-11-05T05:59:11.630Z,23.10
2022-11-05T06:01:40.913Z,23.60
2022-11-05T06:04:10.483Z,23.60
2022-11-05T06:06:39.745Z,24.30
2022-11-05T06:09:08.611Z,24.30
2022-11-05T06:11:37.243Z,24.90
2022-11-05T06:14:06.079Z,25.50
2022-11-05T06:16:35.542Z,24.20
2022-11-05T06:19:04.738Z,26.00
2022-11-05T06:21:33.682Z,25.50
2022-11-05T06:24:02.630Z,26.20
2022-11-05T06:26:31.877Z,25.10
2022-11-05T06:29:00.773Z,25.90
2022-11-05T06:31:29.625Z,25.50
2022-11-05T06:33:58.574Z,27.60
2022-11-05T06:36:27.952Z,25.80
2022-11-05T06:38:56.752Z,25.90
2022-11-05T06:41:25.624Z,26.00
2022-11-05T06:43:54.547Z,24.50
2022-11-05T06:46:23.246Z,25.00
2022-11-05T06:48:52.478Z,25.10
2022-11-05T06:51:21.579Z,25.00
2022-11-05T06:53:50.253Z,24.40
2022-11-05T06:56:18.989Z,27.40
2022-11-05T06:58:48.084Z,24.00
2022-11-05T07:01:17.034Z,24.40
2022-11-05T07:03:48.606Z,22.90
2022-11-05T07:06:17.675Z,24.30
2022-11-05T07:08:47.018Z,24.90
2022-11-05T07:11:16.035Z,23.70
2022-11-05T07:13:44.918Z,24.70
2022-11-05T07:16:13.816Z,24.20
2022-11-05T07:18:42.618Z,24.20
2022-11-05T07:21:11.394Z,23.90
2022-11-05T07:23:40.079Z,24.80
2022-11-05T07:26:08.826Z,25.30
2022-11-05T07:28:37.631Z,24.40
2022-11-05T07:31:06.899Z,24.40
2022-11-05T07:33:36.798Z,24.60
2022-11-05T07:36:06.842Z,24.30
2022-11-05T07:38:36.248Z,25.00
2022-11-05T07:41:05.403Z,23.80
2022-11-05T07:43:34.178Z,24.20
2022-11-05T07:46:03.068Z,24.20
2022-11-05T07:48:31.855Z,23.50
2022-11-05T07:51:00.790Z,22.80
2022-11-05T07:53:29.668Z,23.90
2022-11-05T07:55:58.647Z,23.20
2022-11-05T07:58:27.835Z,24.80
2022-11-05T08:00:58.193Z,23.70
2022-11-05T08:03:27.287Z,23.30
2022-11-05T08:05:56.356Z,22.50
2022-11-05T08:08:25.819Z,23.30
2022-11-05T08:10:54.561Z,22.60
2022-11-05T08:13:23.424Z,23.40
2022-11-05T08:15:52.197Z,23.30
2022-11-05T08:18:20.891Z,22.70
2022-11-05T08:20:49.861Z,23.10
2022-11-05T08:23:18.554Z,22.60
2022-11-05T08:25:47.178Z,23.50
2022-11-05T08:28:15.911Z,23.50
2022-11-05T08:30:48.527Z,22.80
2022-11-05T08:33:17.273Z,23.40
2022-11-05T08:35:46.082Z,23.60
2022-11-05T08:38:17.216Z,24.00
2022-11-05T08:40:53.172Z,26.00
2022-11-05T08:43:22.045Z,25.30
2022-11-05T08:45:51.080Z,24.80
2022-11-05T08:48:20.225Z,25.10
2022-11-05T08:50:49.740Z,25.70
2022-11-05T08:53:18.825Z,24.60
2022-11-05T08:55:49.674Z,25.80
2022-11-05T08:58:19.825Z,27.80
2022-11-05T09:00:50.355Z,27.00
2022-11-05T09:03:19.333Z,27.90
2022-11-05T09:05:48.066Z,28.90
2022-11-05T09:08:19.004Z,29.50
2022-11-05T09:10:49.360Z,28.40
2022-11-05T09:13:20.069Z,30.00
2022-11-05T09:15:49.789Z,28.30
2022-11-05T09:18:19.840Z,30.70
2022-11-05T09:20:48.789Z,31.50
2022-11-05T09:23:18.013Z,31.00
2022-11-05T09:25:46.901Z,30.90
2022-11-05T09:28:17.649Z,31.10
2022-11-05T09:30:47.939Z,30.90
2022-11-05T09:33:18.959Z,32.40
2022-11-05T09:35:48.140Z,32.20
2022-11-05T09:38:16.898Z,30.70
2022-11-05T09:40:52.973Z,31.20
2022-11-05T09:43:30.393Z,31.60
2022-11-05T09:46:08.416Z,30.60
2022-11-05T09:48:39.279Z,33.00
2022-11-05T09:51:10.252Z,33.00
2022-11-05T09:53:42.070Z,35.10
2022-11-05T09:56:21.098Z,35.50
2022-11-05T09:58:53.337Z,35.20
2022-11-05T10:01:26.704Z,38.20
2022-11-05T10:03:58.677Z,36.90
2022-11-05T10:06:28.664Z,37.70
2022-11-05T10:09:03.411Z,35.40
2022-11-05T10:14:11.034Z,33.70
2022-11-05T10:16:43.498Z,34.90
2022-11-05T10:19:21.627Z,34.30
2022-11-05T10:22:05.949Z,35.90
2022-11-05T10:24:35.940Z,32.20
2022-11-05T10:27:06.541Z,32.70
2022-11-05T10:29:36.769Z,31.70
2022-11-05T10:32:06.892Z,30.80
2022-11-05T10:34:37.694Z,30.60
2022-11-05T10:37:06.371Z,32.90
2022-11-05T10:39:35.479Z,33.40
2022-11-05T10:42:31.945Z,32.50
2022-11-05T10:45:08.595Z,33.70
2022-11-05T10:47:48.911Z,33.70
2022-11-05T10:50:20.397Z,31.90
2022-11-05T10:52:57.648Z,33.10
2022-11-05T10:55:28.660Z,32.10
2022-11-05T10:58:08.899Z,30.50
2022-11-05T11:00:37.977Z,31.00
2022-11-05T11:03:28.089Z,30.10
2022-11-05T11:06:01.144Z,31.90
2022-11-05T11:08:31.128Z,31.50
2022-11-05T11:11:03.505Z,31.70
2022-11-05T11:13:50.206Z,31.40
2022-11-05T11:16:23.475Z,29.20
2022-11-05T11:18:56.091Z,30.30
2022-11-05T11:21:25.992Z,29.60
2022-11-05T11:24:00.367Z,31.70
2022-11-05T11:26:32.226Z,31.10
2022-11-05T11:29:05.818Z,30.20
2022-11-05T11:31:39.788Z,30.90
2022-11-05T11:34:16.318Z,30.80
2022-11-05T11:36:47.133Z,29.90
2022-11-05T11:39:19.664Z,26.80
2022-11-05T11:41:52.546Z,30.20
2022-11-05T11:44:26.762Z,29.60
2022-11-05T11:46:57.728Z,28.50
2022-11-05T11:49:40.207Z,29.30
2022-11-05T11:52:13.626Z,29.20
2022-11-05T11:54:42.827Z,28.60
2022-11-05T11:57:24.930Z,28.20
2022-11-05T12:00:08.305Z,25.50
2022-11-05T12:03:01.583Z,30.80
2022-11-05T12:05:41.574Z,28.10
2022-11-05T12:08:37.151Z,29.40
2022-11-05T12:11:13.106Z,29.30
2022-11-05T12:14:03.996Z,27.70
2022-11-05T12:17:06.933Z,27.50
2022-11-05T12:19:52.520Z,53.30
2022-11-05T12:22:30.716Z,34.10
2022-11-05T12:25:17.835Z,31.50
2022-11-05T12:27:59.436Z,31.50
2022-11-05T12:30:35.703Z,29.10
2022-11-05T12:33:24.806Z,30.10
2022-11-05T12:36:05.568Z,30.00
2022-11-05T12:39:04.741Z,29.00
2022-11-05T12:41:39.293Z,30.90
2022-11-05T12:44:33.543Z,31.90
2022-11-05T12:47:17.064Z,37.90
2022-11-05T12:49:59.975Z,36.50
2022-11-05T12:52:52.263Z,34.30
2022-11-05T12:55:24.463Z,34.90
2022-11-05T12:57:58.757Z,30.50
2022-11-05T13:00:30.723Z,37.40
2022-11-05T13:03:19.521Z,32.60
2022-11-05T13:05:53.996Z,35.20
2022-11-05T13:08:26.407Z,33.40
2022-11-05T13:11:00.141Z,35.80
2022-11-05T13:13:37.858Z,36.60
2022-11-05T13:16:13.245Z,36.90
2022-11-05T13:18:47.208Z,39.30
2022-11-05T13:21:17.570Z,41.10
2022-11-05T13:23:50.842Z,49.20
2022-11-05T13:26:25.172Z,45.30
2022-11-05T13:28:59.362Z,45.90
2022-11-05T13:31:33.609Z,43.80
2022-11-05T13:34:06.499Z,36.90
2022-11-05T13:37:05.727Z,37.90
2022-11-05T13:39:37.837Z,35.70
2022-11-05T13:42:27.094Z,33.10
2022-11-05T13:45:13.676Z,32.20
2022-11-05T13:48:10.611Z,32.50
2022-11-05T13:51:16.312Z,34.70
2022-11-05T13:54:19.139Z,31.90
2022-11-05T13:57:04.764Z,34.60
2022-11-05T13:59:54.925Z,33.70
2022-11-05T14:02:26.935Z,32.70
2022-11-05T14:05:00.988Z,35.40
2022-11-05T14:07:33.223Z,32.60
2022-11-05T14:10:15.471Z,34.40
2022-11-05T14:12:50.714Z,35.00
2022-11-05T14:15:24.102Z,38.90
2022-11-05T14:17:58.848Z,40.00
2022-11-05T14:23:38.620Z,41.00
2022-11-05T14:26:22.502Z,42.60
2022-11-05T14:29:13.292Z,39.90
2022-11-05T14:32:08.368Z,36.20
2022-11-05T14:34:49.227Z,37.40
2022-11-05T14:37:34.215Z,39.50
2022-11-05T14:43:08.325Z,38.40
2022-11-05T14:45:39.489Z,38.70
2022-11-05T14:48:27.902Z,37.30
2022-11-05T14:50:57.323Z,38.20
2022-11-05T14:53:32.320Z,45.00
2022-11-05T14:56:05.422Z,49.50
2022-11-05T14:58:39.230Z,42.40
2022-11-05T15:01:09.669Z,42.50
2022-11-05T15:04:02.794Z,36.60
2022-11-05T15:06:34.989Z,37.00
2022-11-05T15:09:17.328Z,34.90
2022-11-05T15:12:02.541Z,33.60
2022-11-05T15:14:34.763Z,42.20
2022-11-05T15:17:18.088Z,39.60
2022-11-05T15:19:48.420Z,32.80
2022-11-05T15:22:34.843Z,32.60
2022-11-05T15:25:05.083Z,32.30
2022-11-05T15:27:55.325Z,28.90
2022-11-05T15:30:25.747Z,27.20
2022-11-05T15:32:54.790Z,26.00
2022-11-05T15:35:26.980Z,24.30
2022-11-05T15:38:02.264Z,24.90
2022-11-05T15:40:33.892Z,24.80
2022-11-05T15:43:19.068Z,22.90
2022-11-05T15:46:01.313Z,22.00
2022-11-05T15:48:30.429Z,23.00
2022-11-05T15:50:59.490Z,22.30
2022-11-05T15:56:51.539Z,21.90
2022-11-05T15:59:21.887Z,21.60
2022-11-05T16:01:54.199Z,22.30
2022-11-05T16:04:25.638Z,36.20
2022-11-05T16:06:57.749Z,27.70
2022-11-05T16:09:28.565Z,25.60
2022-11-05T16:12:26.139Z,24.10
2022-11-05T16:15:05.298Z,22.20
2022-11-05T16:17:47.388Z,19.90
2022-11-05T16:20:23.674Z,21.80
2022-11-05T16:22:55.549Z,19.60
2022-11-05T16:25:29.612Z,19.60
2022-11-05T16:28:00.113Z,19.10
2022-11-05T16:30:29.735Z,18.70
2022-11-05T16:33:07.232Z,16.90
2022-11-05T16:35:48.278Z,16.90
2022-11-05T16:38:18.598Z,17.90
2022-11-05T16:40:47.450Z,19.00
2022-11-05T16:43:21.063Z,17.50
2022-11-05T16:45:50.513Z,17.50
2022-11-05T16:48:19.169Z,16.70
2022-11-05T16:50:48.399Z,17.70
2022-11-05T16:53:19.408Z,17.10
2022-11-05T16:55:49.007Z,16.30
2022-11-05T16:58:21.522Z,15.80
2022-11-05T17:00:52.705Z,17.10
2022-11-05T17:03:22.579Z,17.20
2022-11-05T17:05:51.865Z,18.30
2022-11-05T17:08:22.132Z,17.40
2022-11-05T17:10:51.441Z,20.70
2022-11-05T17:13:21.347Z,18.00
2022-11-05T17:15:51.596Z,18.60
2022-11-05T17:18:21.346Z,16.90
2022-11-05T17:20:52.418Z,16.10
2022-11-05T17:23:28.093Z,15.00
2022-11-05T17:26:02.632Z,15.40
2022-11-05T17:28:32.132Z,15.20
2022-11-05T17:31:02.345Z,13.80
2022-11-05T17:33:32.416Z,14.20
2022-11-05T17:36:05.015Z,13.70
2022-11-05T17:38:34.393Z,14.00
2022-11-05T17:41:09.938Z,14.90
2022-11-05T17:43:39.340Z,15.10
2022-11-05T17:46:10.995Z,12.90
2022-11-05T17:48:41.056Z,16.00
2022-11-05T17:51:11.703Z,17.90
2022-11-05T17:53:41.647Z,15.30
2022-11-05T17:56:12.324Z,15.20
2022-11-05T17:58:41.510Z,15.30
2022-11-05T18:01:25.588Z,14.10
2022-11-05T18:03:55.308Z,15.10
2022-11-05T18:06:25.409Z,14.50
2022-11-05T18:08:54.907Z,15.00
2022-11-05T18:11:24.272Z,17.00
2022-11-05T18:13:53.601Z,15.90
2022-11-05T18:16:23.085Z,14.00
2022-11-05T18:18:52.829Z,12.20
2022-11-05T18:21:22.589Z,12.20
2022-11-05T18:23:52.513Z,12.70
2022-11-05T18:26:21.640Z,12.60
2022-11-05T18:28:50.883Z,12.70
2022-11-05T18:31:22.590Z,13.50
2022-11-05T18:33:55.472Z,13.90
2022-11-05T18:36:26.529Z,13.80
2022-11-05T18:38:57.460Z,12.30
2022-11-05T18:41:26.852Z,12.90
2022-11-05T18:44:00.321Z,13.90
2022-11-05T18:46:56.613Z,13.90
2022-11-05T18:49:19.953Z,12.90
2022-11-05T18:51:49.317Z,13.30
2022-11-05T18:54:18.950Z,13.50
2022-11-05T18:56:48.173Z,13.50
2022-11-05T18:59:36.828Z,13.30
2022-11-05T19:02:08.326Z,13.00
2022-11-05T19:04:38.547Z,14.40
2022-11-05T19:07:08.699Z,13.00
2022-11-05T19:09:40.276Z,12.80
2022-11-05T19:12:09.814Z,12.00
2022-11-05T19:14:38.709Z,12.90
2022-11-05T19:17:09.498Z,13.20
2022-11-05T19:19:39.135Z,12.20
2022-11-05T19:22:08.245Z,12.30
2022-11-05T19:24:37.483Z,12.20
2022-11-05T19:27:07.342Z,12.60
2022-11-05T19:29:36.727Z,12.60
2022-11-05T19:32:06.701Z,12.70
2022-11-05T19:34:36.030Z,12.60
2022-11-05T19:37:07.283Z,12.20
2022-11-05T19:39:36.812Z,12.10
2022-11-05T19:42:08.507Z,11.30
2022-11-05T19:44:38.335Z,11.40
2022-11-05T19:47:07.075Z,12.10
2022-11-05T19:49:36.637Z,12.40
2022-11-05T19:52:06.679Z,13.00
2022-11-05T19:54:36.007Z,14.20
2022-11-05T19:57:06.544Z,15.20
2022-11-05T19:59:36.122Z,13.00
2022-11-05T20:02:06.848Z,12.70
2022-11-05T20:04:38.153Z,12.90
2022-11-05T20:07:07.554Z,13.80
2022-11-05T20:09:36.793Z,13.80
2022-11-05T20:12:06.479Z,14.50
2022-11-05T20:14:36.019Z,13.10
2022-11-05T20:17:05.860Z,14.00
2022-11-05T20:19:35.657Z,15.10
2022-11-05T20:22:05.041Z,15.70
2022-11-05T20:24:34.389Z,12.50
2022-11-05T20:27:03.312Z,14.30
2022-11-05T20:29:35.587Z,12.00
2022-11-05T20:32:06.559Z,12.10
2022-11-05T20:34:36.223Z,15.80
2022-11-05T20:37:05.526Z,14.50
2022-11-05T20:39:34.631Z,14.30
2022-11-05T20:42:04.053Z,13.10
2022-11-05T20:44:32.914Z,12.60
2022-11-05T20:47:02.435Z,13.90
2022-11-05T20:49:31.619Z,14.80
2022-11-05T20:52:00.860Z,17.40
2022-11-05T20:54:30.265Z,18.70
2022-11-05T20:57:00.036Z,15.10
2022-11-05T20:59:29.478Z,14.50
2022-11-05T21:01:59.081Z,15.10
2022-11-05T21:04:29.367Z,14.80
2022-11-05T21:06:59.087Z,15.20
2022-11-05T21:09:29.453Z,14.50
2022-11-05T21:12:11.385Z,14.70
2022-11-05T21:14:43.307Z,15.40
2022-11-05T21:17:15.069Z,16.90
2022-11-05T21:19:44.230Z,16.80
2022-11-05T21:22:15.716Z,17.40
2022-11-05T21:24:45.761Z,16.00
2022-11-05T21:27:15.093Z,17.00
2022-11-05T21:29:44.818Z,15.10
2022-11-05T21:32:14.188Z,15.50
2022-11-05T21:34:43.684Z,15.30
2022-11-05T21:37:13.193Z,14.90
2022-11-05T21:39:42.537Z,15.70
2022-11-05T21:42:12.282Z,20.40
2022-11-05T21:44:41.554Z,19.60
2022-11-05T21:47:11.152Z,18.20
2022-11-05T21:49:40.360Z,21.90
2022-11-05T21:52:30.770Z,20.50
2022-11-05T21:55:17.946Z,20.10
2022-11-05T21:58:04.710Z,17.60
2022-11-05T22:00:34.500Z,17.30
2022-11-05T22:03:04.123Z,16.30
2022-11-05T22:05:33.585Z,15.60
2022-11-05T22:08:03.188Z,15.90
2022-11-05T22:10:32.481Z,15.10
2022-11-05T22:13:02.296Z,15.60
2022-11-05T22:15:30.980Z,15.20
2022-11-05T22:17:59.849Z,16.30
2022-11-05T22:20:29.035Z,17.10
2022-11-05T22:22:57.816Z,17.90
2022-11-05T22:25:26.621Z,17.00
2022-11-05T22:27:55.373Z,16.60
2022-11-05T22:30:24.158Z,15.80
2022-11-05T22:32:53.094Z,15.20
2022-11-05T22:35:21.865Z,16.30
2022-11-05T22:37:50.823Z,16.50
2022-11-05T22:40:23.714Z,17.10
2022-11-05T22:42:52.996Z,17.20
2022-11-05T22:45:22.090Z,15.60
2022-11-05T22:47:50.808Z,16.00
2022-11-05T22:50:19.725Z,16.10
2022-11-05T22:52:49.287Z,16.80
2022-11-05T22:55:18.278Z,18.60
2022-11-05T22:57:47.244Z,17.40
2022-11-05T23:00:18.775Z,17.60
2022-11-05T23:02:47.891Z,16.50
2022-11-05T23:05:16.952Z,15.20
2022-11-05T23:08:03.714Z,16.70
2022-11-05T23:10:51.164Z,16.30
2022-11-05T23:13:19.867Z,19.60
2022-11-05T23:16:06.581Z,17.30
2022-11-05T23:18:53.147Z,16.60
2022-11-05T23:21:40.025Z,16.50
2022-11-05T23:24:09.160Z,16.50
2022-11-05T23:26:51.646Z,16.90
2022-11-05T23:29:23.373Z,17.50
2022-11-05T23:32:11.296Z,19.10
2022-11-05T23:34:40.729Z,17.40
2022-11-05T23:37:27.590Z,17.50
2022-11-05T23:39:56.377Z,17.90
2022-11-05T23:42:43.185Z,16.90
2022-11-05T23:45:45.311Z,16.40
2022-11-05T23:48:19.256Z,15.40
2022-11-05T23:50:52.087Z,16.30
2022-11-05T23:53:20.816Z,15.80
2022-11-05T23:55:49.903Z,16.70
2022-11-05T23:58:18.968Z,17.00
